Time;durP1;ratioP1;P1;durP2;ratioP2;P2;SDS_P1;SDS_P2;PMS_P1;PMS_P2;Temp;Humidity;BMP_temperature;BMP_pressure;BME280_temperature;BME280_humidity;BME280_pressure;Samples;Min_cycle;Max_cycle;Signal;HPM_P1;HPM_P2
2022/12/11 01:14:48;;;;;;;19.20;13.93;;;;;;;1.38;81.13;94767.75;4884802;29;20222;-92
2022/12/11 02:25:12;;;;;;;15.73;11.87;;;;;;;1.30;81.21;94784.63;4862854;29;20227;-93
2022/12/11 02:41:43;;;;;;;15.27;11.80;;;;;;;1.21;81.88;94778.63;4891625;29;20639;-92
2022/12/11 03:01:46;;;;;;;15.27;11.70;;;;;;;1.33;81.01;94791.97;4958586;28;20211;-93
2022/12/11 03:05:25;;;;;;;14.47;11.37;;;;;;;1.36;80.83;94791.66;4870409;29;20207;-93
2022/12/11 03:15:51;;;;;;;14.60;11.47;;;;;;;1.41;79.82;94796.31;4862745;28;20774;-93
2022/12/11 03:49:19;;;;;;;;;;;;;;;;;;;;;
2022/12/11 03:56:11;;;;;;;;;;;;;;;;;;;;;
2022/12/11 04:02:48;;;;;;;;;;;;;;;;;;;;;
2022/12/11 05:16:33;;;;;;;10.40;7.73;;;;;;;0.93;74.48;94795.56;4860212;29;20244;-93
2022/12/11 05:57:10;;;;;;;10.73;8.37;;;;;;;1.16;71.85;94782.53;4831567;29;20216;-92
2022/12/11 05:59:36;;;;;;;10.53;7.90;;;;;;;1.16;71.13;94785.84;4958561;28;20214;-82
2022/12/11 06:02:02;;;;;;;9.70;7.70;;;;;;;1.19;71.63;94782.25;5015939;28;20218;-80
2022/12/11 06:04:29;;;;;;;12.23;9.00;;;;;;;1.14;71.30;94779.34;5021469;28;20201;-80
2022/12/11 06:06:56;;;;;;;10.20;7.83;;;;;;;1.16;71.66;94783.31;5032944;28;20297;-82
2022/12/11 06:09:23;;;;;;;10.63;8.43;;;;;;;1.15;71.74;94779.22;5014751;28;20214;-82
2022/12/11 06:11:49;;;;;;;10.73;7.97;;;;;;;1.22;72.16;94782.78;5023278;28;20240;-80
2022/12/11 06:14:17;;;;;;;11.90;9.20;;;;;;;1.17;70.99;94782.38;5018526;28;20784;-82
2022/12/11 06:16:43;;;;;;;10.43;8.27;;;;;;;1.21;71.62;94775.31;5032157;28;20213;-81
2022/12/11 06:19:17;;;;;;;12.47;8.37;;;;;;;1.23;71.94;94781.84;5015768;28;20199;-82
2022/12/11 06:21:44;;;;;;;9.83;7.97;;;;;;;1.24;72.03;94778.38;5022811;28;20272;-82
2022/12/11 06:24:11;;;;;;;11.63;8.47;;;;;;;1.29;72.14;94783.03;5028835;28;20606;-82
2022/12/11 06:26:38;;;;;;;10.57;8.80;;;;;;;1.29;72.41;94777.97;5018729;28;20218;-81
2022/12/11 06:29:05;;;;;;;12.60;9.67;;;;;;;1.22;72.30;94776.91;5023805;28;20213;-82
2022/12/11 06:31:32;;;;;;;13.47;10.23;;;;;;;1.24;72.71;94782.63;5022170;28;20245;-81
2022/12/11 06:33:59;;;;;;;14.10;10.40;;;;;;;1.24;72.91;94778.38;5015397;28;20206;-82
2022/12/11 06:36:25;;;;;;;12.30;7.80;;;;;;;1.66;100.00;94773.63;5032861;28;20195;-82
2022/12/11 06:38:52;;;;;;;15.07;11.20;;;;;;;2.23;100.00;94776.72;5017397;28;20274;-82
2022/12/11 06:41:19;;;;;;;12.87;10.17;;;;;;;2.22;77.27;94766.72;5019468;28;20205;-81
2022/12/11 06:43:45;;;;;;;13.77;10.63;;;;;;;2.06;75.13;94768.19;5014885;28;20531;-82
2022/12/11 06:46:14;;;;;;;13.00;10.40;;;;;;;1.88;73.84;94771.63;5031818;28;20599;-83
2022/12/11 06:48:42;;;;;;;14.23;10.47;;;;;;;1.78;74.00;94775.97;5015524;28;20195;-81
2022/12/11 06:51:11;;;;;;;14.77;10.17;;;;;;;1.63;74.02;94780.72;5012424;28;20192;-82
2022/12/11 06:53:38;;;;;;;13.90;10.97;;;;;;;1.61;74.65;94772.47;5005808;28;20280;-81
2022/12/11 06:56:05;;;;;;;14.63;11.40;;;;;;;1.50;74.49;94777.72;5017906;28;20570;-81
2022/12/11 06:58:34;;;;;;;13.87;10.33;;;;;;;1.48;74.79;94782.94;5011522;28;20202;-81
2022/12/11 07:01:01;;;;;;;13.83;11.03;;;;;;;1.42;74.60;94777.63;5011888;28;20221;-81
2022/12/11 07:03:28;;;;;;;14.17;10.77;;;;;;;1.44;74.17;94775.75;5014359;28;20654;-82
2022/12/11 07:06:00;;;;;;;13.77;10.40;;;;;;;1.44;74.53;94780.81;5011932;28;20210;-81
2022/12/11 07:08:27;;;;;;;15.00;11.10;;;;;;;1.45;74.53;94778.16;5013163;28;20596;-82
2022/12/11 07:10:54;;;;;;;14.83;11.60;;;;;;;1.41;73.98;94781.91;5020390;28;20428;-80
2022/12/11 07:13:20;;;;;;;14.70;10.80;;;;;;;1.39;74.38;94784.56;5021237;28;20219;-81
2022/12/11 07:15:46;;;;;;;14.60;11.37;;;;;;;1.37;74.50;94788.97;5011766;28;20183;-81
2022/12/11 07:18:13;;;;;;;18.43;11.33;;;;;;;1.33;74.97;94789.44;5011901;28;20736;-82
2022/12/11 07:20:39;;;;;;;15.43;11.07;;;;;;;1.31;75.36;94793.84;5011640;28;20696;-81
2022/12/11 07:23:07;;;;;;;13.80;10.40;;;;;;;1.36;75.79;94804.34;5011518;28;20309;-81
2022/12/11 07:25:36;;;;;;;15.53;10.80;;;;;;;1.34;75.43;94799.44;5011490;28;20245;-80
2022/12/11 07:28:02;;;;;;;16.13;11.97;;;;;;;1.34;75.05;94798.63;5013202;28;20234;-81
2022/12/11 07:30:29;;;;;;;13.60;10.80;;;;;;;1.27;75.05;94805.19;5011064;28;20199;-82
2022/12/11 07:32:55;;;;;;;13.57;10.57;;;;;;;1.20;76.07;94804.94;5012004;28;20233;-82
2022/12/11 07:35:22;;;;;;;14.87;11.20;;;;;;;1.25;75.68;94807.84;5011267;28;20203;-81
2022/12/11 07:37:48;;;;;;;14.63;10.73;;;;;;;1.28;75.29;94806.78;5011490;28;20203;-80
2022/12/11 07:40:16;;;;;;;16.07;12.20;;;;;;;1.26;75.47;94806.91;5011852;28;20211;-81
2022/12/11 07:42:43;;;;;;;13.93;10.93;;;;;;;1.24;75.24;94810.53;5010806;28;20227;-81
2022/12/11 07:45:10;;;;;;;16.00;11.83;;;;;;;1.26;75.22;94804.38;5011617;28;20222;-81
2022/12/11 07:47:37;;;;;;;16.13;12.07;;;;;;;1.28;75.27;94804.25;5010726;28;20237;-81
2022/12/11 07:50:03;;;;;;;15.07;11.67;;;;;;;1.31;75.01;94806.50;5011735;28;20198;-81
2022/12/11 07:52:30;;;;;;;15.93;11.97;;;;;;;1.37;75.08;94798.31;5010712;28;20233;-82
2022/12/11 07:54:56;;;;;;;17.77;12.17;;;;;;;1.35;74.47;94801.00;5011503;28;20199;-82
2022/12/11 07:57:24;;;;;;;15.00;11.57;;;;;;;1.33;74.10;94797.03;5011823;28;20210;-80
2022/12/11 07:59:51;;;;;;;15.60;12.07;;;;;;;1.34;74.30;94794.34;5011619;28;20261;-81
2022/12/11 08:02:17;;;;;;;14.57;11.77;;;;;;;1.31;73.91;94798.91;5011477;28;20231;-81
2022/12/11 08:04:44;;;;;;;16.80;13.53;;;;;;;1.29;73.93;94798.25;5011453;28;20210;-82
2022/12/11 08:07:11;;;;;;;16.17;13.07;;;;;;;1.25;73.66;94807.06;5010348;28;20219;-80
2022/12/11 08:09:38;;;;;;;18.20;13.37;;;;;;;1.23;74.11;94804.66;5010793;28;20202;-79
2022/12/11 08:12:05;;;;;;;15.67;12.37;;;;;;;1.23;73.93;94803.84;5010962;28;20222;-81
2022/12/11 08:14:32;;;;;;;14.83;12.00;;;;;;;1.24;73.97;94803.72;5010565;28;20214;-81
2022/12/11 08:17:01;;;;;;;15.90;11.63;;;;;;;1.21;73.96;94805.72;5011051;28;20205;-80
2022/12/11 08:19:28;;;;;;;15.00;11.63;;;;;;;1.13;73.67;94811.50;5010423;28;20203;-81
2022/12/11 08:21:54;;;;;;;14.63;11.03;;;;;;;1.06;73.95;94805.38;5005734;28;20230;-80
2022/12/11 08:24:21;;;;;;;13.00;8.33;;;;;;;2.02;100.00;94812.56;5007804;28;20238;-84
2022/12/11 08:26:48;;;;;;;17.23;10.23;;;;;;;3.03;100.00;94802.91;5011604;28;20234;-81
2022/12/11 08:29:14;;;;;;;15.07;11.40;;;;;;;3.24;78.12;94807.63;5013461;28;20213;-80
2022/12/11 08:31:42;;;;;;;16.27;11.20;;;;;;;3.01;72.44;94808.13;5011120;28;20222;-81
2022/12/11 08:34:12;;;;;;;14.73;11.47;;;;;;;2.75;71.96;94804.75;5008558;28;20207;-80
2022/12/11 08:36:39;;;;;;;15.93;12.13;;;;;;;2.40;70.92;94816.56;5020340;28;20205;-81
2022/12/11 08:39:05;;;;;;;14.70;11.70;;;;;;;2.24;71.74;94818.16;5002303;28;20207;-81
2022/12/11 08:41:32;;;;;;;14.63;10.87;;;;;;;2.06;72.26;94823.22;5022650;28;20586;-80
2022/12/11 08:44:00;;;;;;;15.77;12.10;;;;;;;1.98;72.77;94821.38;5023568;28;20201;-79
2022/12/11 08:46:28;;;;;;;14.53;11.23;;;;;;;1.82;72.06;94821.22;5017757;28;20579;-80
2022/12/11 08:48:56;;;;;;;14.30;11.20;;;;;;;1.74;72.49;94826.19;5010564;28;20199;-80
2022/12/11 08:51:25;;;;;;;14.13;11.40;;;;;;;1.62;71.69;94824.78;5009609;28;20202;-80
2022/12/11 08:53:55;;;;;;;12.67;10.20;;;;;;;1.57;72.05;94827.75;5010774;28;20198;-80
2022/12/11 08:56:22;;;;;;;11.87;9.90;;;;;;;1.49;72.80;94829.41;5026255;28;20205;-81
2022/12/11 08:58:49;;;;;;;12.57;9.97;;;;;;;1.38;73.00;94838.75;5009669;28;20199;-81
2022/12/11 09:01:17;;;;;;;13.10;9.97;;;;;;;1.47;73.40;94836.34;5021515;28;20201;-79
2022/12/11 09:03:44;;;;;;;13.07;9.93;;;;;;;1.56;73.49;94838.81;5013634;28;20206;-80
2022/12/11 09:06:14;;;;;;;13.53;10.57;;;;;;;1.59;72.73;94830.94;5009437;28;20205;-80
2022/12/11 09:08:40;;;;;;;12.90;9.87;;;;;;;1.64;71.71;94828.78;5010923;28;20203;-80
2022/12/11 09:11:09;;;;;;;13.20;10.63;;;;;;;1.68;71.40;94832.66;5009421;28;20201;-81
2022/12/11 09:13:36;;;;;;;11.53;9.13;;;;;;;1.67;71.75;94833.59;5009442;28;20206;-79
2022/12/11 09:16:04;;;;;;;11.90;9.80;;;;;;;1.66;71.17;94828.66;5011809;28;20199;-80
2022/12/11 09:18:30;;;;;;;12.73;9.70;;;;;;;1.51;70.96;94825.78;5010911;28;20226;-80
2022/12/11 09:21:01;;;;;;;12.20;9.53;;;;;;;1.52;71.46;94827.38;5011973;28;20692;-81
2022/12/11 09:23:28;;;;;;;11.43;9.50;;;;;;;1.38;70.74;94826.09;5007503;28;20214;-80
2022/12/11 09:25:55;;;;;;;11.53;9.17;;;;;;;1.38;71.44;94822.75;5007773;28;20202;-79
2022/12/11 09:28:21;;;;;;;10.07;8.40;;;;;;;1.34;70.54;94819.72;5012453;28;20222;-80
2022/12/11 09:30:48;;;;;;;11.20;8.97;;;;;;;1.31;71.96;94817.44;5008293;28;20853;-81
2022/12/11 09:33:14;;;;;;;10.63;8.83;;;;;;;1.30;71.03;94817.59;5010932;28;20218;-79
2022/12/11 09:35:41;;;;;;;11.20;8.57;;;;;;;1.35;70.01;94823.03;5006811;28;20203;-80
2022/12/11 09:38:08;;;;;;;9.77;7.80;;;;;;;1.33;69.53;94820.66;5008894;28;20697;-81
2022/12/11 09:40:41;;;;;;;9.50;7.97;;;;;;;1.49;69.64;94825.13;5009670;28;20203;-79
2022/12/11 09:43:21;;;;;;;10.07;8.37;;;;;;;1.61;69.19;94816.38;5011039;28;20226;-84
2022/12/11 09:45:57;;;;;;;10.60;8.83;;;;;;;1.57;67.94;94819.34;5009565;28;20582;-82
2022/12/11 09:48:26;;;;;;;11.10;8.77;;;;;;;1.61;68.64;94810.50;5015792;28;20225;-83
2022/12/11 09:50:54;;;;;;;10.73;9.23;;;;;;;1.58;68.80;94810.78;5010173;28;20290;-82
2022/12/11 09:53:29;;;;;;;11.47;8.67;;;;;;;1.59;68.46;94809.84;5026981;28;20229;-80
2022/12/11 09:56:04;;;;;;;10.50;8.30;;;;;;;1.53;68.14;94806.16;5026796;28;20198;-81
2022/12/11 09:58:41;;;;;;;10.60;8.17;;;;;;;1.53;68.39;94811.22;5019740;28;20191;-81
2022/12/11 10:01:14;;;;;;;10.77;8.23;;;;;;;1.50;68.12;94803.91;5020962;28;20205;-82
2022/12/11 10:03:58;;;;;;;9.70;7.90;;;;;;;1.44;67.84;94806.97;5023813;28;20210;-81
2022/12/11 10:06:30;;;;;;;10.43;8.27;;;;;;;1.52;67.86;94799.47;5014156;28;20201;-82
2022/12/11 10:09:06;;;;;;;9.87;8.00;;;;;;;1.61;67.54;94800.34;5028007;28;20190;-81
2022/12/11 10:11:52;;;;;;;9.67;7.60;;;;;;;1.63;66.74;94799.28;5028667;28;20226;-84
2022/12/11 10:14:26;;;;;;;10.10;7.80;;;;;;;1.59;66.90;94799.69;5021526;28;20214;-82
2022/12/11 10:16:55;;;;;;;8.93;7.83;;;;;;;1.57;67.72;94792.22;5013704;28;20194;-82
2022/12/11 10:19:27;;;;;;;9.40;7.93;;;;;;;1.63;71.92;94788.34;5013265;28;20286;-82
2022/12/11 10:21:55;;;;;;;9.67;8.13;;;;;;;1.69;70.26;94780.97;5012942;28;20915;-82
2022/12/11 10:24:28;;;;;;;58.67;39.83;;;;;;;1.89;68.44;94776.56;5020268;28;20207;-82
2022/12/11 10:26:59;;;;;;;22.00;14.97;;;;;;;1.98;67.64;94774.91;5018714;28;20213;-79
2022/12/11 10:29:26;;;;;;;13.33;11.27;;;;;;;2.14;67.22;94769.97;5022053;28;20209;-81
2022/12/11 10:31:56;;;;;;;10.13;9.00;;;;;;;2.02;68.15;94769.41;5015530;28;20844;-80
2022/12/11 10:34:32;;;;;;;9.43;7.77;;;;;;;2.03;66.14;94765.13;5025058;28;20202;-80
2022/12/11 10:36:59;;;;;;;9.47;8.00;;;;;;;2.15;66.69;94756.34;5023353;28;20425;-81
2022/12/11 10:39:26;;;;;;;9.77;8.20;;;;;;;2.10;65.87;94762.81;5024208;28;20194;-79
2022/12/11 10:41:54;;;;;;;8.70;7.57;;;;;;;2.01;66.57;94767.00;5014565;28;20211;-80
2022/12/11 10:44:24;;;;;;;8.77;7.87;;;;;;;1.92;65.79;94760.28;5017497;28;20225;-81
2022/12/11 10:47:02;;;;;;;9.10;7.50;;;;;;;2.01;65.86;94757.66;5022337;28;20733;-81
2022/12/11 10:49:31;;;;;;;8.87;7.73;;;;;;;2.02;66.66;94755.91;5014836;28;20193;-82
2022/12/11 10:52:00;;;;;;;9.63;7.67;;;;;;;2.16;65.16;94755.41;5031274;28;20210;-82
2022/12/11 10:54:32;;;;;;;9.93;8.00;;;;;;;2.11;65.03;94760.13;5011818;28;20206;-81
2022/12/11 10:57:00;;;;;;;9.17;7.67;;;;;;;2.30;65.16;94744.75;5015586;28;20190;-80
2022/12/11 10:59:35;;;;;;;9.00;6.93;;;;;;;2.29;64.89;94745.69;5024101;28;20202;-81
2022/12/11 11:02:02;;;;;;;8.80;7.33;;;;;;;2.25;64.17;94746.13;5031520;28;20222;-80
2022/12/11 11:04:32;;;;;;;9.57;7.80;;;;;;;1.95;64.26;94743.00;5029385;28;20214;-82
2022/12/11 11:07:03;;;;;;;10.33;8.77;;;;;;;1.93;65.35;94744.06;5024969;28;20224;-82
2022/12/11 11:09:33;;;;;;;8.47;7.03;;;;;;;2.00;65.36;94737.47;5023513;28;20207;-82
2022/12/11 11:12:00;;;;;;;8.53;7.07;;;;;;;2.06;64.50;94730.09;5013003;28;20265;-80
2022/12/11 11:14:26;;;;;;;8.00;7.10;;;;;;;2.01;66.44;94724.66;5030886;28;20213;-80
2022/12/11 11:16:56;;;;;;;9.03;7.60;;;;;;;2.07;67.10;94726.63;5016761;28;20534;-81
2022/12/11 11:19:26;;;;;;;9.27;8.03;;;;;;;2.13;66.15;94724.41;5018251;28;20202;-80
2022/12/11 11:21:54;;;;;;;10.23;8.00;;;;;;;2.16;66.22;94726.66;5028952;28;20226;-81
2022/12/11 11:24:28;;;;;;;10.07;7.50;;;;;;;2.03;65.08;94721.97;5011807;28;20721;-82
2022/12/11 11:26:55;;;;;;;9.20;7.30;;;;;;;1.86;64.20;94717.69;5028664;28;20221;-80
2022/12/11 11:29:28;;;;;;;9.63;7.73;;;;;;;1.83;65.34;94713.69;5022502;28;20202;-82
2022/12/11 11:31:56;;;;;;;8.27;7.00;;;;;;;1.74;64.92;94710.28;5021296;28;20222;-81
2022/12/11 11:34:25;;;;;;;8.37;7.10;;;;;;;1.73;65.21;94706.13;5030757;28;20209;-80
2022/12/11 11:36:56;;;;;;;9.67;8.07;;;;;;;1.64;66.45;94707.03;5012853;28;20207;-80
2022/12/11 11:39:31;;;;;;;9.83;8.27;;;;;;;1.58;67.86;94699.97;5021003;28;20205;-80
2022/12/11 11:42:02;;;;;;;8.97;7.60;;;;;;;1.59;66.90;94701.56;5027233;28;20257;-81
2022/12/11 11:44:35;;;;;;;9.80;7.97;;;;;;;1.64;66.43;94696.06;5018852;28;20209;-81
2022/12/11 11:47:10;;;;;;;10.63;8.03;;;;;;;1.53;66.76;94696.28;5016588;28;20210;-81
2022/12/11 11:49:50;;;;;;;12.30;10.03;;;;;;;1.55;67.56;94690.09;5027065;28;20193;-81
2022/12/11 11:52:24;;;;;;;24.43;18.13;;;;;;;2.23;76.98;94694.69;5012165;28;20210;-81
2022/12/11 11:54:56;;;;;;;9.33;8.33;;;;;;;2.31;68.53;94692.22;5014286;28;20795;-81
2022/12/11 11:57:32;;;;;;;8.50;7.50;;;;;;;2.37;66.19;94686.53;5013308;28;20317;-81
2022/12/11 12:00:08;;;;;;;11.57;8.13;;;;;;;2.43;65.74;94686.72;5014584;28;20198;-81
2022/12/11 12:02:37;;;;;;;7.47;6.67;;;;;;;2.56;64.35;94693.94;5011317;28;20736;-83
2022/12/11 12:05:04;;;;;;;8.07;6.60;;;;;;;2.49;64.59;94689.63;5015477;28;20199;-82
2022/12/11 12:07:37;;;;;;;9.13;7.00;;;;;;;2.42;64.77;94687.69;5008425;28;20214;-81
2022/12/11 12:10:15;;;;;;;8.33;6.50;;;;;;;2.57;79.16;94684.59;5013580;28;20258;-86
2022/12/11 12:12:50;;;;;;;7.13;6.13;;;;;;;2.80;65.85;94680.59;5025380;28;20214;-81
2022/12/11 12:15:29;;;;;;;7.37;5.77;;;;;;;2.72;62.96;94678.78;5014569;28;20206;-81
2022/12/11 12:18:13;;;;;;;7.13;5.97;;;;;;;2.83;62.60;94682.84;5030227;28;20183;-82
2022/12/11 12:20:47;;;;;;;7.67;6.50;;;;;;;3.01;62.16;94678.47;5031231;28;20190;-82
2022/12/11 12:23:31;;;;;;;7.57;6.50;;;;;;;3.03;59.86;94673.22;5031129;28;20613;-82
2022/12/11 12:26:06;;;;;;;7.60;6.43;;;;;;;3.12;59.54;94678.19;5031818;28;20193;-82
2022/12/11 12:28:41;;;;;;;7.00;6.23;;;;;;;3.21;58.74;94679.03;5030509;28;20267;-81
2022/12/11 12:31:23;;;;;;;6.17;5.20;;;;;;;3.18;57.75;94675.97;5030409;28;20190;-81
2022/12/11 12:34:00;;;;;;;5.83;5.13;;;;;;;3.36;58.47;94687.66;5013209;28;20233;-83
2022/12/11 12:36:34;;;;;;;7.00;5.73;;;;;;;3.44;57.15;94680.06;4991495;28;20210;-81
2022/12/11 12:39:03;;;;;;;6.47;5.13;;;;;;;3.65;57.64;94677.09;4991075;28;20191;-81
2022/12/11 12:41:42;;;;;;;6.20;5.60;;;;;;;3.80;57.78;94667.88;4990993;28;20207;-81
2022/12/11 12:44:15;;;;;;;5.87;4.97;;;;;;;3.76;56.54;94668.34;5000836;28;20658;-81
2022/12/11 12:47:05;;;;;;;6.63;5.87;;;;;;;3.83;56.37;94671.06;5009824;28;20202;-80
2022/12/11 12:49:39;;;;;;;9.50;7.33;;;;;;;3.65;56.42;94676.28;5007241;28;20210;-81
2022/12/11 12:52:11;;;;;;;6.90;6.00;;;;;;;3.30;57.31;94672.19;5010096;28;20219;-80
2022/12/11 12:54:40;;;;;;;5.93;5.33;;;;;;;3.14;58.53;94672.94;5010296;28;20191;-81
2022/12/11 12:57:08;;;;;;;7.40;6.20;;;;;;;2.98;58.72;94673.69;5010636;28;20206;-81
2022/12/11 12:59:34;;;;;;;7.10;5.83;;;;;;;2.72;58.63;94683.88;5009908;28;20238;-81
2022/12/11 13:02:05;;;;;;;7.47;6.37;;;;;;;2.38;59.29;94668.59;5010737;28;20564;-82
2022/12/11 13:04:42;;;;;;;6.87;6.10;;;;;;;2.23;60.02;94672.63;5010673;28;20190;-82
2022/12/11 13:07:19;;;;;;;8.17;6.43;;;;;;;2.06;61.67;94671.72;5010370;28;20240;-81
2022/12/11 13:09:57;;;;;;;8.03;5.77;;;;;;;1.81;61.93;94671.66;5006667;28;20294;-80
2022/12/11 13:12:32;;;;;;;6.97;6.00;;;;;;;1.61;62.05;94669.25;4990725;28;20234;-82
2022/12/11 13:15:00;;;;;;;6.50;5.43;;;;;;;1.69;62.45;94679.50;4990385;28;20207;-81
2022/12/11 13:17:36;;;;;;;7.33;6.00;;;;;;;1.74;63.32;94673.97;4990577;28;20297;-81
2022/12/11 13:20:12;;;;;;;6.00;5.40;;;;;;;1.73;62.26;94669.84;4990330;28;20686;-81
2022/12/11 13:22:49;;;;;;;15.90;11.80;;;;;;;1.85;61.70;94676.28;4990465;28;20584;-81
2022/12/11 13:25:21;;;;;;;7.00;5.70;;;;;;;1.79;61.00;94671.00;4991391;28;20219;-81
2022/12/11 13:27:49;;;;;;;6.43;4.80;;;;;;;1.68;61.20;94667.75;4990244;28;20223;-82
2022/12/11 13:30:25;;;;;;;6.63;4.50;;;;;;;1.56;61.25;94678.22;5008557;28;20195;-81
2022/12/11 13:33:01;;;;;;;6.33;5.27;;;;;;;1.46;60.86;94680.84;5010296;28;20301;-81
2022/12/11 13:35:30;;;;;;;5.63;4.97;;;;;;;1.47;62.12;94679.09;5010418;28;20619;-81
2022/12/11 13:38:02;;;;;;;5.93;5.10;;;;;;;1.52;62.52;94679.47;5010167;28;20198;-82
2022/12/11 13:40:37;;;;;;;6.27;5.47;;;;;;;1.47;62.16;94679.91;5011011;28;20194;-81
2022/12/11 13:43:07;;;;;;;5.27;4.33;;;;;;;1.38;61.89;94681.53;5014176;28;20225;-81
2022/12/11 13:45:40;;;;;;;6.60;5.13;;;;;;;1.24;61.71;94678.69;5014338;28;20200;-81
2022/12/11 13:48:17;;;;;;;6.00;4.67;;;;;;;1.27;61.99;94673.34;5013763;28;20207;-81
2022/12/11 13:50:46;;;;;;;6.37;4.90;;;;;;;1.36;61.46;94675.00;5014386;28;20183;-82
2022/12/11 13:53:15;;;;;;;5.40;4.77;;;;;;;1.46;61.64;94673.22;5014533;28;20237;-81
2022/12/11 13:55:41;;;;;;;6.43;4.37;;;;;;;1.57;61.31;94674.75;5017808;28;20195;-81
2022/12/11 13:58:17;;;;;;;5.90;5.03;;;;;;;1.77;62.63;94673.66;5009390;28;20206;-80
2022/12/11 14:00:54;;;;;;;5.60;4.83;;;;;;;1.90;61.60;94674.13;5011907;28;20206;-84
2022/12/11 14:03:20;;;;;;;6.97;4.43;;;;;;;1.87;60.98;94678.69;5008669;28;20934;-82
2022/12/11 14:05:48;;;;;;;5.13;4.13;;;;;;;1.69;61.47;94676.16;5029645;28;20206;-81
2022/12/11 14:08:21;;;;;;;5.00;4.50;;;;;;;1.60;61.24;94672.72;5026711;28;20222;-82
2022/12/11 14:10:52;;;;;;;4.67;4.17;;;;;;;1.48;60.98;94662.94;5021588;28;20210;-80
2022/12/11 14:13:23;;;;;;;6.50;4.80;;;;;;;1.41;61.36;94680.47;5018638;28;20234;-81
2022/12/11 14:15:50;;;;;;;5.43;4.40;;;;;;;1.37;61.35;94674.06;5033187;28;20260;-80
2022/12/11 14:18:20;;;;;;;7.10;4.70;;;;;;;1.35;62.07;94674.22;5014796;28;20194;-80
2022/12/11 14:20:54;;;;;;;5.07;4.37;;;;;;;1.24;62.09;94673.63;5028581;28;20213;-82
2022/12/11 14:23:23;;;;;;;4.70;4.20;;;;;;;1.28;62.07;94677.47;5027269;28;20254;-81
2022/12/11 14:25:53;;;;;;;5.63;4.70;;;;;;;1.31;62.20;94682.28;5011297;28;20392;-82
2022/12/11 14:28:19;;;;;;;5.37;4.87;;;;;;;1.39;62.50;94674.72;5010752;28;20215;-82
2022/12/11 14:30:49;;;;;;;6.63;5.13;;;;;;;1.37;64.50;94685.03;5027145;28;20191;-80
2022/12/11 14:33:19;;;;;;;6.80;5.53;;;;;;;1.41;63.09;94682.19;5024528;28;20238;-80
2022/12/11 14:35:47;;;;;;;6.40;5.17;;;;;;;1.46;63.16;94683.38;5023398;28;20724;-80
2022/12/11 14:38:19;;;;;;;6.20;5.10;;;;;;;1.43;62.87;94685.41;5032147;28;20190;-81
2022/12/11 14:40:49;;;;;;;6.10;5.50;;;;;;;1.43;62.73;94683.66;5015582;28;20191;-80
2022/12/11 14:43:23;;;;;;;6.40;5.60;;;;;;;1.39;62.91;94682.34;5017439;28;20211;-81
2022/12/11 14:45:55;;;;;;;6.30;5.13;;;;;;;1.36;63.35;94688.50;5014617;28;20646;-81
2022/12/11 14:48:25;;;;;;;7.57;5.30;;;;;;;1.37;62.70;94689.28;5010391;28;20223;-80
2022/12/11 14:50:54;;;;;;;7.77;5.43;;;;;;;1.23;64.02;94693.09;5014110;28;20199;-81
2022/12/11 14:53:26;;;;;;;7.07;5.40;;;;;;;1.27;63.63;94688.56;5012747;28;20214;-83
2022/12/11 14:55:53;;;;;;;7.37;5.40;;;;;;;1.29;63.70;94682.41;5016176;28;20206;-80
2022/12/11 14:58:22;;;;;;;7.30;5.73;;;;;;;1.36;63.51;94683.41;5012649;28;20203;-81
2022/12/11 15:00:57;;;;;;;7.60;5.37;;;;;;;1.35;63.51;94688.63;5016752;28;20706;-82
2022/12/11 15:03:26;;;;;;;7.20;5.80;;;;;;;1.28;63.41;94688.41;5001332;28;20222;-82
2022/12/11 15:05:54;;;;;;;7.63;6.03;;;;;;;1.19;64.39;94698.59;5013313;28;20203;-83
2022/12/11 15:08:26;;;;;;;8.50;6.37;;;;;;;1.14;63.99;94690.63;5013411;28;20234;-83
2022/12/11 15:11:02;;;;;;;7.23;6.40;;;;;;;1.14;64.25;94693.97;5012997;28;20191;-82
2022/12/11 15:13:30;;;;;;;7.00;6.03;;;;;;;1.21;63.83;94696.72;5012694;28;20230;-82
2022/12/11 15:15:57;;;;;;;8.20;6.50;;;;;;;1.22;64.34;94696.59;5013463;28;20206;-82
2022/12/11 15:18:27;;;;;;;7.90;6.43;;;;;;;1.20;64.14;94688.31;5014481;28;20201;-82
2022/12/11 15:20:56;;;;;;;8.40;6.67;;;;;;;1.21;64.58;94689.91;5029754;28;20210;-82
2022/12/11 15:23:24;;;;;;;7.17;6.03;;;;;;;1.22;64.36;94688.19;5013253;28;20654;-81
2022/12/11 15:25:52;;;;;;;7.97;6.37;;;;;;;1.18;64.45;94692.72;5013223;28;20198;-83
2022/12/11 15:28:30;;;;;;;7.47;6.03;;;;;;;1.05;64.79;94694.81;5012723;28;20225;-83
2022/12/11 15:30:58;;;;;;;9.83;6.53;;;;;;;0.97;65.40;94687.88;5012393;28;20251;-82
2022/12/11 15:33:25;;;;;;;8.43;6.13;;;;;;;1.03;65.71;94689.06;5012913;28;20575;-83
2022/12/11 15:36:01;;;;;;;8.53;7.20;;;;;;;1.05;65.00;94689.72;5012874;28;20198;-82
2022/12/11 15:38:35;;;;;;;8.97;6.73;;;;;;;1.07;65.61;94700.53;5012212;28;20203;-82
2022/12/11 15:41:02;;;;;;;9.10;6.37;;;;;;;1.08;65.16;94698.78;5012458;28;20183;-82
2022/12/11 15:43:34;;;;;;;7.20;6.47;;;;;;;1.10;65.08;94700.25;5007858;28;20598;-82
2022/12/11 15:46:01;;;;;;;8.13;6.77;;;;;;;1.11;65.28;94698.53;4992943;28;20360;-81
2022/12/11 15:48:28;;;;;;;8.63;7.03;;;;;;;1.12;65.19;94700.91;5004237;28;20571;-81
2022/12/11 15:50:54;;;;;;;7.50;6.53;;;;;;;1.12;65.05;94706.00;5014700;28;20229;-82
2022/12/11 15:53:21;;;;;;;8.97;6.40;;;;;;;0.99;65.21;94701.22;5031051;28;20221;-80
2022/12/11 15:55:49;;;;;;;8.63;6.97;;;;;;;0.91;65.10;94703.66;5016158;28;20194;-81
2022/12/11 15:58:19;;;;;;;8.40;7.10;;;;;;;0.85;65.53;94694.09;5024003;28;20828;-81
2022/12/11 16:00:46;;;;;;;10.13;6.73;;;;;;;0.79;65.40;94697.16;5013878;28;20198;-81
2022/12/11 16:03:13;;;;;;;8.50;7.13;;;;;;;0.81;65.68;94707.16;5029195;28;20221;-81
2022/12/11 16:05:40;;;;;;;8.00;6.57;;;;;;;0.82;65.43;94704.50;5028086;28;20595;-82
2022/12/11 16:08:07;;;;;;;8.23;6.93;;;;;;;0.82;65.18;94708.75;5011657;28;20206;-81
2022/12/11 16:10:34;;;;;;;8.93;7.67;;;;;;;0.80;65.38;94715.69;5021827;28;20195;-81
2022/12/11 16:13:01;;;;;;;9.27;7.77;;;;;;;0.91;65.38;94708.75;5024032;28;20219;-81
2022/12/11 16:15:29;;;;;;;10.07;8.20;;;;;;;0.93;65.36;94713.66;5011555;28;20724;-81
2022/12/11 16:18:00;;;;;;;11.03;8.20;;;;;;;0.93;65.22;94717.00;5019820;28;20596;-81
2022/12/11 16:20:26;;;;;;;13.53;8.97;;;;;;;0.91;65.49;94715.53;5020137;28;20260;-81
2022/12/11 16:22:52;;;;;;;16.00;9.07;;;;;;;0.92;65.50;94709.53;5025183;28;20226;-80
2022/12/11 16:25:19;;;;;;;12.43;8.17;;;;;;;0.92;65.48;94717.94;5012234;28;20248;-80
2022/12/11 16:27:46;;;;;;;15.63;8.57;;;;;;;0.94;65.38;94717.81;5026669;28;20201;-80
2022/12/11 16:30:14;;;;;;;19.70;9.63;;;;;;;0.87;65.44;94715.00;5011621;28;20210;-84
2022/12/11 16:32:40;;;;;;;23.33;9.83;;;;;;;0.89;65.61;94723.28;5017324;28;20217;-81
2022/12/11 16:35:07;;;;;;;17.37;10.13;;;;;;;0.91;65.21;94716.34;5021094;28;20206;-80
2022/12/11 16:37:33;;;;;;;17.00;9.47;;;;;;;0.92;65.64;94725.53;5029461;28;20198;-81
2022/12/11 16:40:00;;;;;;;15.60;9.57;;;;;;;0.92;65.46;94728.06;5015217;28;20221;-80
2022/12/11 16:42:26;;;;;;;18.73;10.00;;;;;;;0.92;65.72;94734.88;5017660;28;20558;-81
2022/12/11 16:44:53;;;;;;;14.73;10.03;;;;;;;0.90;65.56;94734.22;5028467;28;20209;-81
2022/12/11 16:47:21;;;;;;;15.27;10.27;;;;;;;0.91;65.99;94734.06;5009047;28;20238;-80
2022/12/11 16:49:47;;;;;;;13.73;10.00;;;;;;;0.93;66.04;94733.94;5022172;28;20202;-81
2022/12/11 16:52:14;;;;;;;14.23;9.53;;;;;;;0.86;65.87;94731.16;5021207;28;20246;-79
2022/12/11 16:54:40;;;;;;;11.73;9.10;;;;;;;0.82;66.15;94729.81;5008304;28;20199;-81
2022/12/11 16:57:06;;;;;;;13.83;9.23;;;;;;;0.81;66.00;94727.44;5009962;28;20202;-80
2022/12/11 16:59:33;;;;;;;17.00;10.00;;;;;;;0.81;66.18;94733.28;5017914;28;20224;-80
2022/12/11 17:01:59;;;;;;;12.50;9.50;;;;;;;0.93;68.02;94733.94;5020964;28;20229;-81
2022/12/11 17:04:27;;;;;;;14.33;9.67;;;;;;;0.86;66.32;94740.50;5011369;28;20186;-81
2022/12/11 17:06:54;;;;;;;14.13;9.80;;;;;;;0.90;66.14;94732.47;5029530;28;20864;-80
2022/12/11 17:09:21;;;;;;;13.93;9.83;;;;;;;0.89;66.13;94730.09;5014682;28;20219;-79
2022/12/11 17:11:47;;;;;;;12.40;9.20;;;;;;;0.83;65.82;94731.41;5018054;28;20217;-81
2022/12/11 17:14:14;;;;;;;11.80;8.70;;;;;;;0.77;66.11;94737.03;5014616;28;20203;-80
2022/12/11 17:16:40;;;;;;;11.17;8.70;;;;;;;0.78;66.23;94737.84;5022038;28;20198;-81
2022/12/11 17:19:08;;;;;;;10.77;8.50;;;;;;;0.75;66.14;94733.88;5019033;28;20226;-79
2022/12/11 17:21:35;;;;;;;13.60;9.43;;;;;;;0.70;65.78;94733.47;5021948;28;20205;-80